Time,TemperatureF,DewpointF,PressureIn,WindDirection,WindDirectionDegrees,WindSpeedMPH,WindSpeedGustMPH,Humidity,HourlyPrecipIn,Conditions,Clouds,dailyrainin,SoftwareType,DateUTC
2013-05-20 00:03:00,55.6,47.5,29.48,NNE,22,0.0,0.0,74,0.00,,,0.00,VWS V14.01,2013-05-19 23:03:00,
2013-05-20 00:09:00,55.2,46.7,29.48,NNE,22,0.0,0.0,73,0.00,,,0.00,VWS V14.01,2013-05-19 23:09:00,
2013-05-20 00:14:00,54.9,46.8,29.48,NNE,22,0.0,0.0,74,0.00,,,0.00,VWS V14.01,2013-05-19 23:14:00,
2013-05-20 00:20:00,54.3,46.2,29.49,NNE,22,0.0,0.0,74,0.00,,,0.00,VWS V14.01,2013-05-19 23:20:00,
2013-05-20 00:26:00,53.8,46.4,29.48,NNE,22,0.0,0.0,76,0.00,,,0.00,VWS V14.01,2013-05-19 23:26:00,
2013-05-20 00:32:00,53.8,46.4,29.48,NNE,22,0.0,0.0,76,0.00,,,0.00,VWS V14.01,2013-05-19 23:32:00,
2013-05-20 00:38:00,53.8,46.8,29.48,NNE,22,0.0,0.0,77,0.00,,,0.00,VWS V14.01,2013-05-19 23:38:00,
2013-05-20 00:44:00,53.4,46.4,29.47,NNE,22,0.0,0.0,77,0.00,,,0.00,VWS V14.01,2013-05-19 23:44:00,
2013-05-20 00:49:00,53.4,46.7,29.47,NNE,22,0.0,0.0,78,0.00,,,0.00,VWS V14.01,2013-05-19 23:49:00,
2013-05-20 00:55:00,52.9,46.2,29.47,North,0,0.0,0.0,78,0.00,,,0.00,VWS V14.01,2013-05-19 23:55:00,
2013-05-20 01:01:00,52.9,46.9,29.47,NNW,337,0.0,0.0,80,0.00,,,0.00,VWS V14.01,2013-05-20 00:01:00,
2013-05-20 01:07:00,52.7,46.7,29.47,NNW,337,0.0,0.0,80,0.00,,,0.00,VWS V14.01,2013-05-20 00:07:00,
2013-05-20 01:13:00,52.7,46.7,29.47,North,0,0.0,0.0,80,0.00,,,0.00,VWS V14.01,2013-05-20 00:13:00,
2013-05-20 01:19:00,52.7,47.0,29.47,North,0,0.0,0.0,81,0.00,,,0.00,VWS V14.01,2013-05-20 00:19:00,
2013-05-20 01:25:00,52.9,47.2,29.47,NNW,337,0.0,0.0,81,0.00,,,0.00,VWS V14.01,2013-05-20 00:25:00,
2013-05-20 01:31:00,52.9,47.2,29.47,North,0,0.0,0.0,81,0.00,,,0.00,VWS V14.01,2013-05-20 00:31:00,
2013-05-20 01:37:00,53.2,47.5,29.47,NNW,337,0.0,0.0,81,0.00,,,0.00,VWS V14.01,2013-05-20 00:37:00,
2013-05-20 01:43:00,53.4,47.4,29.47,NNW,337,0.0,0.0,80,0.00,,,0.00,VWS V14.01,2013-05-20 00:43:00,
2013-05-20 01:48:00,53.6,47.6,29.47,NNW,337,0.0,0.0,80,0.00,,,0.00,VWS V14.01,2013-05-20 00:48:00,
2013-05-20 01:54:00,53.8,47.5,29.47,North,0,0.0,0.0,79,0.00,,,0.00,VWS V14.01,2013-05-20 00:54:00,
2013-05-20 02:00:00,54.0,47.3,29.47,NNW,337,0.0,2.9,78,0.00,,,0.00,VWS V14.01,2013-05-20 01:00:00,
2013-05-20 02:06:00,54.1,47.4,29.47,NNW,337,5.4,9.6,78,0.00,,,0.00,VWS V14.01,2013-05-20 01:06:00,
2013-05-20 02:12:00,54.1,47.1,29.47,NNW,337,2.7,7.4,77,0.00,,,0.00,VWS V14.01,2013-05-20 01:12:00,
2013-05-20 02:17:00,53.4,47.1,29.47,NNW,337,0.0,0.0,79,0.00,,,0.00,VWS V14.01,2013-05-20 01:17:00,
2013-05-20 02:23:00,52.9,46.9,29.47,NNW,337,3.8,6.5,80,0.00,,,0.00,VWS V14.01,2013-05-20 01:23:00,
2013-05-20 02:29:00,52.3,47.0,29.46,NNW,337,3.8,4.9,82,0.00,,,0.00,VWS V14.01,2013-05-20 01:29:00,
2013-05-20 02:35:00,52.3,47.0,29.46,NNW,337,0.0,2.2,82,0.00,,,0.00,VWS V14.01,2013-05-20 01:35:00,
2013-05-20 02:41:00,52.2,47.2,29.46,NNW,337,0.0,0.0,83,0.00,,,0.00,VWS V14.01,2013-05-20 01:41:00,
2013-05-20 02:46:00,52.0,47.0,29.47,NNW,337,0.0,0.0,83,0.00,,,0.00,VWS V14.01,2013-05-20 01:46:00,
2013-05-20 02:52:00,52.0,47.0,29.46,North,0,0.0,0.0,83,0.00,,,0.00,VWS V14.01,2013-05-20 01:52:00,
2013-05-20 02:57:00,52.0,47.3,29.46,SSW,202,0.0,0.0,84,0.00,,,0.00,VWS V14.01,2013-05-20 01:57:00,
2013-05-20 03:03:00,52.0,47.3,29.46,NNW,337,0.0,0.0,84,0.00,,,0.00,VWS V14.01,2013-05-20 02:03:00,
2013-05-20 03:08:00,52.2,47.5,29.46,NNW,337,0.0,0.0,84,0.00,,,0.00,VWS V14.01,2013-05-20 02:08:00,
2013-05-20 03:13:00,52.2,47.5,29.46,NNW,337,0.0,4.5,84,0.00,,,0.00,VWS V14.01,2013-05-20 02:13:00,
2013-05-20 03:19:00,52.2,47.5,29.45,North,0,0.0,0.0,84,0.00,,,0.00,VWS V14.01,2013-05-20 02:19:00,
2013-05-20 03:25:00,52.2,47.5,29.45,North,0,0.0,0.0,84,0.00,,,0.00,VWS V14.01,2013-05-20 02:25:00,
2013-05-20 03:30:00,52.0,47.3,29.45,North,0,0.0,0.0,84,0.00,,,0.00,VWS V14.01,2013-05-20 02:30:00,
2013-05-20 03:36:00,52.0,47.3,29.45,SW,225,0.0,0.0,84,0.00,,,0.00,VWS V14.01,2013-05-20 02:36:00,
2013-05-20 03:41:00,51.8,47.4,29.44,North,0,0.0,0.0,85,0.00,,,0.00,VWS V14.01,2013-05-20 02:41:00,
2013-05-20 03:47:00,51.8,47.1,29.44,North,0,0.0,0.0,84,0.00,,,0.00,VWS V14.01,2013-05-20 02:47:00,
2013-05-20 03:53:00,51.8,47.1,29.44,North,0,0.0,0.0,84,0.00,,,0.00,VWS V14.01,2013-05-20 02:53:00,
2013-05-20 03:59:00,52.0,47.3,29.44,North,0,0.0,0.0,84,0.00,,,0.00,VWS V14.01,2013-05-20 02:59:00,
2013-05-20 04:05:00,51.6,47.2,29.44,NNW,337,0.0,3.1,85,0.00,,,0.00,VWS V14.01,2013-05-20 03:05:00,
2013-05-20 04:11:00,51.3,47.3,29.44,North,0,0.0,0.0,86,0.00,,,0.00,VWS V14.01,2013-05-20 03:11:00,
2013-05-20 04:16:00,51.3,47.3,29.44,North,0,0.0,0.0,86,0.00,,,0.00,VWS V14.01,2013-05-20 03:16:00,
2013-05-20 04:22:00,51.3,47.3,29.44,NNW,337,0.0,0.0,86,0.00,,,0.00,VWS V14.01,2013-05-20 03:22:00,
2013-05-20 04:28:00,51.4,47.4,29.44,NW,315,0.0,0.0,86,0.00,,,0.00,VWS V14.01,2013-05-20 03:28:00,
2013-05-20 04:34:00,51.6,47.6,29.44,NNW,337,0.0,0.0,86,0.00,,,0.00,VWS V14.01,2013-05-20 03:34:00,
2013-05-20 04:40:00,51.6,47.6,29.44,NNW,337,0.0,0.0,86,0.00,,,0.00,VWS V14.01,2013-05-20 03:40:00,
2013-05-20 04:45:00,51.6,47.6,29.44,North,0,0.0,0.0,86,0.00,,,0.00,VWS V14.01,2013-05-20 03:45:00,
2013-05-20 04:51:00,51.6,47.6,29.44,North,0,0.0,0.0,86,0.00,,,0.00,VWS V14.01,2013-05-20 03:51:00,
2013-05-20 04:57:00,51.6,47.6,29.44,North,0,0.0,0.0,86,0.00,,,0.00,VWS V14.01,2013-05-20 03:57:00,
2013-05-20 05:01:00,51.4,47.4,29.44,SSW,202,0.0,0.0,86,0.00,,,0.00,VWS V14.01,2013-05-20 04:01:00,
2013-05-20 05:02:00,51.6,47.6,29.44,North,0,0.0,0.0,86,0.00,,,0.00,VWS V14.01,2013-05-20 04:02:00,
2013-05-20 05:04:00,51.4,47.4,29.44,SSW,202,0.0,0.0,86,0.00,,,0.00,VWS V14.01,2013-05-20 04:04:00,
2013-05-20 05:05:00,51.4,47.4,29.44,NE,45,0.0,0.0,86,0.00,,,0.00,VWS V14.01,2013-05-20 04:05:00,
2013-05-20 05:10:00,51.6,47.6,29.43,SSW,202,0.0,0.0,86,0.00,,,0.00,VWS V14.01,2013-05-20 04:10:00,
2013-05-20 05:16:00,51.4,47.4,29.43,NNW,337,0.0,0.0,86,0.00,,,0.00,VWS V14.01,2013-05-20 04:16:00,
2013-05-20 05:22:00,51.4,47.4,29.44,NNW,337,0.0,0.0,86,0.00,,,0.00,VWS V14.01,2013-05-20 04:22:00,
2013-05-20 05:27:00,51.4,47.4,29.44,SSW,202,0.0,0.0,86,0.00,,,0.00,VWS V14.01,2013-05-20 04:27:00,
2013-05-20 05:33:00,51.6,47.6,29.44,North,0,0.0,0.0,86,0.00,,,0.00,VWS V14.01,2013-05-20 04:33:00,
2013-05-20 05:38:00,51.6,47.6,29.44,North,0,0.0,0.0,86,0.00,,,0.00,VWS V14.01,2013-05-20 04:38:00,
2013-05-20 05:43:00,51.4,47.4,29.44,NNW,337,0.0,0.0,86,0.00,,,0.00,VWS V14.01,2013-05-20 04:43:00,
2013-05-20 05:49:00,51.3,47.3,29.44,North,0,0.0,0.0,86,0.00,,,0.00,VWS V14.01,2013-05-20 04:49:00,
2013-05-20 05:55:00,51.1,47.4,29.44,SSW,202,0.0,0.0,87,0.00,,,0.00,VWS V14.01,2013-05-20 04:55:00,
2013-05-20 06:01:00,51.1,47.4,29.44,SSW,202,0.0,0.0,87,0.00,,,0.00,VWS V14.01,2013-05-20 05:01:00,
2013-05-20 06:07:00,51.3,47.6,29.44,SSW,202,0.0,0.0,87,0.00,,,0.00,VWS V14.01,2013-05-20 05:07:00,
2013-05-20 06:13:00,51.4,47.7,29.44,North,0,0.0,0.0,87,0.00,,,0.00,VWS V14.01,2013-05-20 05:13:00,
2013-05-20 06:18:00,51.4,47.7,29.44,North,0,0.0,0.0,87,0.00,,,0.00,VWS V14.01,2013-05-20 05:18:00,
2013-05-20 06:24:00,51.6,47.6,29.44,SSW,202,0.0,0.0,86,0.00,,,0.00,VWS V14.01,2013-05-20 05:24:00,
2013-05-20 06:29:00,51.6,47.6,29.44,SSW,202,0.0,0.0,86,0.00,,,0.00,VWS V14.01,2013-05-20 05:29:00,
2013-05-20 06:34:00,52.0,48.0,29.44,North,0,0.0,0.0,86,0.00,,,0.00,VWS V14.01,2013-05-20 05:34:00,
2013-05-20 06:40:00,52.0,48.0,29.44,North,0,0.0,0.0,86,0.00,,,0.00,VWS V14.01,2013-05-20 05:40:00,
2013-05-20 06:45:00,52.0,48.0,29.44,North,0,0.0,0.0,86,0.00,,,0.00,VWS V14.01,2013-05-20 05:45:00,
2013-05-20 06:51:00,52.2,48.2,29.43,NNW,337,0.0,0.0,86,0.00,,,0.00,VWS V14.01,2013-05-20 05:51:00,
2013-05-20 06:57:00,52.3,48.2,29.43,SSW,202,0.0,0.0,86,0.00,,,0.00,VWS V14.01,2013-05-20 05:57:00,
2013-05-20 07:03:00,52.5,48.4,29.44,North,0,0.0,0.0,86,0.00,,,0.00,VWS V14.01,2013-05-20 06:03:00,
2013-05-20 07:09:00,52.5,48.4,29.43,North,0,0.0,0.0,86,0.00,,,0.00,VWS V14.01,2013-05-20 06:09:00,
2013-05-20 07:15:00,52.7,48.6,29.44,North,0,0.0,0.0,86,0.00,,,0.00,VWS V14.01,2013-05-20 06:15:00,
2013-05-20 07:21:00,52.9,48.8,29.44,NNW,337,0.0,0.0,86,0.00,,,0.00,VWS V14.01,2013-05-20 06:21:00,
2013-05-20 07:26:00,53.1,49.0,29.44,NNW,337,0.0,0.0,86,0.00,,,0.00,VWS V14.01,2013-05-20 06:26:00,
2013-05-20 07:32:00,53.1,49.0,29.43,NNW,337,0.0,0.0,86,0.00,,,0.00,VWS V14.01,2013-05-20 06:32:00,
2013-05-20 07:38:00,53.1,49.0,29.44,NNW,337,0.0,0.0,86,0.00,,,0.00,VWS V14.01,2013-05-20 06:38:00,
2013-05-20 07:44:00,53.2,49.1,29.44,North,0,0.0,0.0,86,0.00,,,0.00,VWS V14.01,2013-05-20 06:44:00,
2013-05-20 07:49:00,53.2,49.4,29.44,North,0,0.0,0.0,87,0.00,,,0.00,VWS V14.01,2013-05-20 06:49:00,
2013-05-20 07:55:00,53.2,49.4,29.44,NNW,337,0.0,0.0,87,0.00,,,0.00,VWS V14.01,2013-05-20 06:55:00,
2013-05-20 08:01:00,53.2,49.7,29.44,NNW,337,0.0,0.0,88,0.00,,,0.00,VWS V14.01,2013-05-20 07:01:00,
2013-05-20 08:07:00,53.2,49.7,29.45,NNW,337,0.0,0.0,88,0.00,,,0.00,VWS V14.01,2013-05-20 07:07:00,
2013-05-20 08:13:00,53.4,49.6,29.45,NNE,22,0.0,0.0,87,0.00,,,0.00,VWS V14.01,2013-05-20 07:13:00,
2013-05-20 08:18:00,53.4,49.6,29.45,NNW,337,0.0,0.0,87,0.00,,,0.00,VWS V14.01,2013-05-20 07:18:00,
2013-05-20 08:23:00,53.8,50.0,29.44,NNW,337,0.0,0.0,87,0.00,,,0.00,VWS V14.01,2013-05-20 07:23:00,
2013-05-20 08:29:00,53.8,50.0,29.45,NNW,337,0.0,0.0,87,0.00,,,0.00,VWS V14.01,2013-05-20 07:29:00,
2013-05-20 08:34:00,54.1,50.3,29.44,NNW,337,0.0,0.0,87,0.00,,,0.00,VWS V14.01,2013-05-20 07:34:00,
2013-05-20 08:40:00,54.3,50.2,29.44,North,0,0.0,0.0,86,0.00,,,0.00,VWS V14.01,2013-05-20 07:40:00,
2013-05-20 08:45:00,54.3,50.2,29.44,North,0,0.0,0.0,86,0.00,,,0.00,VWS V14.01,2013-05-20 07:45:00,
2013-05-20 08:51:00,54.5,50.4,29.44,NNW,337,0.0,0.0,86,0.00,,,0.00,VWS V14.01,2013-05-20 07:51:00,
2013-05-20 08:56:00,54.5,50.4,29.44,North,0,0.0,0.0,86,0.00,,,0.00,VWS V14.01,2013-05-20 07:56:00,
2013-05-20 09:02:00,54.7,50.6,29.44,North,0,0.0,0.0,86,0.00,,,0.00,VWS V14.01,2013-05-20 08:02:00,
2013-05-20 09:07:00,54.5,50.4,29.44,North,0,0.0,0.0,86,0.00,,,0.00,VWS V14.01,2013-05-20 08:07:00,
2013-05-20 09:13:00,54.5,50.4,29.44,NNW,337,0.0,0.0,86,0.00,,,0.00,VWS V14.01,2013-05-20 08:13:00,
2013-05-20 09:19:00,54.9,50.8,29.44,North,0,0.0,3.6,86,0.00,,,0.00,VWS V14.01,2013-05-20 08:19:00,
2013-05-20 09:24:00,55.2,51.1,29.44,NNW,337,0.0,0.0,86,0.00,,,0.00,VWS V14.01,2013-05-20 08:24:00,
2013-05-20 09:30:00,55.6,51.2,29.44,North,0,8.3,9.6,85,0.00,,,0.00,VWS V14.01,2013-05-20 08:30:00,
2013-05-20 09:35:00,55.6,50.8,29.44,North,0,0.0,9.2,84,0.00,,,0.00,VWS V14.01,2013-05-20 08:35:00,
2013-05-20 09:41:00,55.8,51.0,29.44,NNW,337,0.0,0.0,84,0.00,,,0.00,VWS V14.01,2013-05-20 08:41:00,
2013-05-20 09:47:00,55.9,50.8,29.44,NNW,337,0.0,0.0,83,0.00,,,0.00,VWS V14.01,2013-05-20 08:47:00,
2013-05-20 09:53:00,56.1,51.0,29.44,North,0,0.0,0.0,83,0.00,,,0.00,VWS V14.01,2013-05-20 08:53:00,
2013-05-20 09:59:00,56.5,51.4,29.44,NNW,337,2.2,6.9,83,0.00,,,0.00,VWS V14.01,2013-05-20 08:59:00,
2013-05-20 10:05:00,56.8,51.4,29.44,NW,315,3.8,3.8,82,0.00,,,0.00,VWS V14.01,2013-05-20 09:05:00,
2013-05-20 10:10:00,57.0,51.6,29.44,North,0,6.9,14.3,82,0.00,,,0.00,VWS V14.01,2013-05-20 09:10:00,
2013-05-20 10:15:00,57.4,51.6,29.44,NNE,22,9.4,9.4,81,0.00,,,0.00,VWS V14.01,2013-05-20 09:15:00,
2013-05-20 10:21:00,57.6,51.8,29.44,NNW,337,8.3,10.3,81,0.00,,,0.00,VWS V14.01,2013-05-20 09:21:00,
2013-05-20 10:26:00,57.4,51.6,29.44,NNE,22,4.7,5.6,81,0.00,,,0.00,VWS V14.01,2013-05-20 09:26:00,
2013-05-20 10:31:00,57.4,51.6,29.44,North,0,9.6,9.8,81,0.00,,,0.00,VWS V14.01,2013-05-20 09:31:00,
2013-05-20 10:37:00,57.6,51.8,29.44,North,0,9.4,13.6,81,0.00,,,0.00,VWS V14.01,2013-05-20 09:37:00,
2013-05-20 10:43:00,57.6,51.8,29.44,North,0,5.8,5.8,81,0.00,,,0.00,VWS V14.01,2013-05-20 09:43:00,
2013-05-20 10:49:00,57.7,51.6,29.45,NNE,22,9.6,9.6,80,0.00,,,0.00,VWS V14.01,2013-05-20 09:49:00,
2013-05-20 10:55:00,57.7,51.9,29.45,NNW,337,6.0,6.3,81,0.00,,,0.00,VWS V14.01,2013-05-20 09:55:00,
2013-05-20 11:01:00,57.7,51.9,29.45,NNW,337,11.0,11.0,81,0.00,,,0.00,VWS V14.01,2013-05-20 10:01:00,
2013-05-20 11:07:00,57.7,51.9,29.45,NNW,337,3.4,4.5,81,0.00,,,0.00,VWS V14.01,2013-05-20 10:07:00,
2013-05-20 11:13:00,57.6,51.8,29.44,NNE,22,3.6,17.7,81,0.00,,,0.00,VWS V14.01,2013-05-20 10:13:00,
2013-05-20 11:18:00,57.6,51.8,29.44,SSW,202,1.1,2.9,81,0.00,,,0.00,VWS V14.01,2013-05-20 10:18:00,
2013-05-20 11:24:00,57.7,51.9,29.44,North,0,14.8,14.8,81,0.00,,,0.00,VWS V14.01,2013-05-20 10:24:00,
2013-05-20 11:30:00,57.6,52.2,29.44,NNE,22,13.9,13.9,82,0.00,,,0.00,VWS V14.01,2013-05-20 10:30:00,
2013-05-20 11:36:00,57.6,52.2,29.44,North,0,0.0,8.1,82,0.00,,,0.00,VWS V14.01,2013-05-20 10:36:00,
2013-05-20 11:41:00,57.7,52.2,29.44,North,0,0.0,6.3,82,0.00,,,0.00,VWS V14.01,2013-05-20 10:41:00,
2013-05-20 11:46:00,57.7,52.2,29.44,North,0,1.1,8.9,82,0.00,,,0.00,VWS V14.01,2013-05-20 10:46:00,
2013-05-20 11:52:00,57.9,52.5,29.44,NNW,337,2.0,5.4,82,0.00,,,0.00,VWS V14.01,2013-05-20 10:52:00,
2013-05-20 11:57:00,58.1,52.3,29.44,North,0,8.9,8.9,81,0.00,,,0.00,VWS V14.01,2013-05-20 10:57:00,
2013-05-20 12:02:00,58.3,52.5,29.45,NNW,337,4.3,9.2,81,0.00,,,0.00,VWS V14.01,2013-05-20 11:02:00,
2013-05-20 12:08:00,58.3,52.5,29.45,NNW,337,8.7,8.9,81,0.00,,,0.00,VWS V14.01,2013-05-20 11:08:00,
2013-05-20 12:13:00,58.3,52.5,29.44,North,0,4.5,5.1,81,0.00,,,0.00,VWS V14.01,2013-05-20 11:13:00,
2013-05-20 12:19:00,58.6,52.8,29.44,NNW,337,0.0,5.8,81,0.00,,,0.00,VWS V14.01,2013-05-20 11:19:00,
2013-05-20 12:25:00,58.8,53.0,29.44,North,0,5.6,9.2,81,0.00,,,0.00,VWS V14.01,2013-05-20 11:25:00,
2013-05-20 12:31:00,58.8,53.0,29.44,North,0,0.0,6.5,81,0.00,,,0.00,VWS V14.01,2013-05-20 11:31:00,
2013-05-20 12:36:00,58.8,52.7,29.45,North,0,0.0,8.3,80,0.00,,,0.00,VWS V14.01,2013-05-20 11:36:00,
2013-05-20 12:41:00,58.8,52.7,29.44,North,0,7.8,14.8,80,0.00,,,0.00,VWS V14.01,2013-05-20 11:41:00,
2013-05-20 12:47:00,58.8,53.0,29.44,NNE,22,0.0,11.0,81,0.00,,,0.00,VWS V14.01,2013-05-20 11:47:00,
2013-05-20 12:52:00,58.8,53.0,29.44,North,0,0.0,0.0,81,0.00,,,0.00,VWS V14.01,2013-05-20 11:52:00,
2013-05-20 12:58:00,58.8,53.0,29.44,NNW,337,6.3,6.3,81,0.00,,,0.00,VWS V14.01,2013-05-20 11:58:00,
2013-05-20 13:04:00,58.8,53.0,29.44,North,0,0.0,4.5,81,0.00,,,0.00,VWS V14.01,2013-05-20 12:04:00,
2013-05-20 13:09:00,59.4,53.2,29.44,North,0,2.9,13.2,80,0.00,,,0.00,VWS V14.01,2013-05-20 12:09:00,
2013-05-20 13:15:00,59.5,53.3,29.44,NNW,337,2.9,7.8,80,0.00,,,0.00,VWS V14.01,2013-05-20 12:15:00,
2013-05-20 13:20:00,59.9,53.4,29.44,NNW,337,9.4,9.4,79,0.00,,,0.00,VWS V14.01,2013-05-20 12:20:00,
2013-05-20 13:26:00,60.3,53.4,29.45,NNW,337,9.2,9.2,78,0.00,,,0.00,VWS V14.01,2013-05-20 12:26:00,
2013-05-20 13:32:00,60.4,53.5,29.45,NNW,337,2.2,2.2,78,0.00,,,0.00,VWS V14.01,2013-05-20 12:32:00,
2013-05-20 13:37:00,60.4,53.5,29.45,North,0,11.2,11.2,78,0.00,,,0.00,VWS V14.01,2013-05-20 12:37:00,
2013-05-20 13:43:00,60.6,53.7,29.44,NNW,337,7.8,8.1,78,0.00,,,0.00,VWS V14.01,2013-05-20 12:43:00,
2013-05-20 13:49:00,61.0,54.1,29.45,NNW,337,1.1,5.8,78,0.00,,,0.00,VWS V14.01,2013-05-20 12:49:00,
2013-05-20 13:54:00,61.0,53.8,29.45,NNW,337,2.0,5.6,77,0.00,,,0.00,VWS V14.01,2013-05-20 12:54:00,
2013-05-20 13:59:00,61.0,53.8,29.45,North,0,6.0,6.0,77,0.00,,,0.00,VWS V14.01,2013-05-20 12:59:00,
2013-05-20 14:05:00,61.2,53.9,29.45,NNE,22,0.0,4.3,77,0.00,,,0.00,VWS V14.01,2013-05-20 13:05:00,
2013-05-20 14:11:00,61.2,53.9,29.45,North,0,3.4,10.1,77,0.00,,,0.00,VWS V14.01,2013-05-20 13:11:00,
2013-05-20 14:17:00,61.5,54.2,29.45,North,0,4.9,4.9,77,0.00,,,0.00,VWS V14.01,2013-05-20 13:17:00,
2013-05-20 14:23:00,61.9,54.3,29.45,North,0,2.9,4.0,76,0.00,,,0.00,VWS V14.01,2013-05-20 13:23:00,
2013-05-20 14:30:00,62.4,54.4,29.45,NNW,337,5.1,8.5,75,0.00,,,0.00,VWS V14.01,2013-05-20 13:30:00,
2013-05-20 14:35:00,62.8,54.4,29.45,North,0,1.6,6.5,74,0.00,,,0.00,VWS V14.01,2013-05-20 13:35:00,
2013-05-20 14:40:00,63.0,54.6,29.46,NNE,22,3.4,3.8,74,0.00,,,0.00,VWS V14.01,2013-05-20 13:40:00,
2013-05-20 14:46:00,63.1,54.7,29.45,North,0,5.6,5.6,74,0.00,,,0.00,VWS V14.01,2013-05-20 13:46:00,
2013-05-20 14:52:00,63.0,54.6,29.46,North,0,0.0,5.4,74,0.00,,,0.00,VWS V14.01,2013-05-20 13:52:00,
2013-05-20 14:58:00,63.1,54.7,29.45,North,0,8.9,8.9,74,0.00,,,0.00,VWS V14.01,2013-05-20 13:58:00,
2013-05-20 15:03:00,63.1,54.7,29.46,NNW,337,0.0,5.4,74,0.00,,,0.00,VWS V14.01,2013-05-20 14:03:00,
2013-05-20 15:09:00,63.1,54.3,29.46,NNW,337,2.2,7.6,73,0.00,,,0.00,VWS V14.01,2013-05-20 14:09:00,
2013-05-20 15:15:00,62.8,54.4,29.46,NNW,337,11.0,12.3,74,0.00,,,0.00,VWS V14.01,2013-05-20 14:15:00,
2013-05-20 15:21:00,62.6,54.6,29.46,North,0,0.0,0.0,75,0.00,,,0.00,VWS V14.01,2013-05-20 14:21:00,
2013-05-20 15:26:00,62.6,54.6,29.47,North,0,7.8,7.8,75,0.00,,,0.00,VWS V14.01,2013-05-20 14:26:00,
2013-05-20 15:32:00,62.4,54.4,29.46,NNW,337,5.6,8.5,75,0.00,,,0.00,VWS V14.01,2013-05-20 14:32:00,
2013-05-20 15:38:00,62.2,54.2,29.46,NNW,337,0.0,6.0,75,0.00,,,0.00,VWS V14.01,2013-05-20 14:38:00,
2013-05-20 15:44:00,62.2,54.5,29.46,NNE,22,4.3,6.3,76,0.00,,,0.00,VWS V14.01,2013-05-20 14:44:00,
2013-05-20 15:50:00,62.4,54.4,29.46,North,0,0.0,5.1,75,0.00,,,0.00,VWS V14.01,2013-05-20 14:50:00,
2013-05-20 15:55:00,62.4,54.4,29.46,NNE,22,8.7,13.0,75,0.00,,,0.00,VWS V14.01,2013-05-20 14:55:00,
2013-05-20 16:00:00,62.4,54.4,29.46,NNE,22,6.5,13.6,75,0.00,,,0.00,VWS V14.01,2013-05-20 15:00:00,
2013-05-20 16:06:00,62.6,54.6,29.46,NNE,22,7.2,7.2,75,0.00,,,0.00,VWS V14.01,2013-05-20 15:06:00,
2013-05-20 16:11:00,62.8,54.8,29.45,North,0,4.5,9.6,75,0.00,,,0.00,VWS V14.01,2013-05-20 15:11:00,
2013-05-20 16:16:00,62.8,54.8,29.45,NNW,337,0.0,0.0,75,0.00,,,0.00,VWS V14.01,2013-05-20 15:16:00,
2013-05-20 16:22:00,62.8,54.8,29.45,North,0,8.1,9.6,75,0.00,,,0.00,VWS V14.01,2013-05-20 15:22:00,
2013-05-20 16:28:00,62.4,54.4,29.46,NNE,22,0.0,6.9,75,0.00,,,0.00,VWS V14.01,2013-05-20 15:28:00,
2013-05-20 16:33:00,62.6,54.9,29.46,North,0,0.0,0.0,76,0.00,,,0.00,VWS V14.01,2013-05-20 15:33:00,
2013-05-20 16:38:00,62.6,54.9,29.46,NNE,22,6.3,6.3,76,0.00,,,0.00,VWS V14.01,2013-05-20 15:38:00,
2013-05-20 16:43:00,62.6,54.9,29.45,NNE,22,0.0,6.9,76,0.00,,,0.00,VWS V14.01,2013-05-20 15:43:00,
2013-05-20 16:48:00,62.6,54.9,29.46,NNE,22,0.0,0.0,76,0.00,,,0.00,VWS V14.01,2013-05-20 15:48:00,
2013-05-20 16:54:00,62.8,55.1,29.46,North,0,3.6,6.3,76,0.00,,,0.00,VWS V14.01,2013-05-20 15:54:00,
2013-05-20 16:59:00,62.8,55.1,29.46,North,0,0.0,0.0,76,0.00,,,0.00,VWS V14.01,2013-05-20 15:59:00,
2013-05-20 17:05:00,62.8,55.1,29.46,North,0,7.4,7.4,76,0.00,,,0.00,VWS V14.01,2013-05-20 16:05:00,
2013-05-20 17:10:00,62.8,55.1,29.46,NNW,337,2.2,4.5,76,0.00,,,0.00,VWS V14.01,2013-05-20 16:10:00,
2013-05-20 17:16:00,62.4,54.8,29.46,NNE,22,9.6,9.6,76,0.00,,,0.00,VWS V14.01,2013-05-20 16:16:00,
2013-05-20 17:22:00,62.4,55.1,29.46,NE,45,3.6,9.2,77,0.00,,,0.00,VWS V14.01,2013-05-20 16:22:00,
2013-05-20 17:28:00,62.4,55.1,29.46,North,0,4.9,9.6,77,0.00,,,0.00,VWS V14.01,2013-05-20 16:28:00,
2013-05-20 17:33:00,62.4,55.1,29.47,NNW,337,0.0,8.7,77,0.00,,,0.00,VWS V14.01,2013-05-20 16:33:00,
2013-05-20 17:39:00,62.8,55.5,29.47,NNE,22,0.0,4.5,77,0.00,,,0.00,VWS V14.01,2013-05-20 16:39:00,
2013-05-20 17:44:00,62.8,55.1,29.47,North,0,6.0,8.9,76,0.00,,,0.00,VWS V14.01,2013-05-20 16:44:00,
2013-05-20 17:50:00,62.8,55.5,29.46,NNW,337,3.6,3.6,77,0.00,,,0.00,VWS V14.01,2013-05-20 16:50:00,
2013-05-20 17:55:00,63.0,55.7,29.47,NNE,22,0.0,0.0,77,0.00,,,0.00,VWS V14.01,2013-05-20 16:55:00,
2013-05-20 18:00:00,63.5,55.8,29.47,North,0,0.0,0.0,76,0.00,,,0.00,VWS V14.01,2013-05-20 17:00:00,
2013-05-20 18:06:00,64.0,55.9,29.47,NNE,22,0.0,0.0,75,0.00,,,0.00,VWS V14.01,2013-05-20 17:06:00,
2013-05-20 18:11:00,64.0,55.9,29.46,North,0,5.8,5.8,75,0.00,,,0.00,VWS V14.01,2013-05-20 17:11:00,
2013-05-20 18:16:00,64.0,55.9,29.47,NNE,22,0.0,0.0,75,0.00,,,0.00,VWS V14.01,2013-05-20 17:16:00,
2013-05-20 18:22:00,63.7,55.6,29.47,North,0,4.5,8.7,75,0.00,,,0.00,VWS V14.01,2013-05-20 17:22:00,
2013-05-20 18:28:00,63.3,55.2,29.47,North,0,0.0,5.4,75,0.00,,,0.00,VWS V14.01,2013-05-20 17:28:00,
2013-05-20 18:34:00,63.1,55.4,29.47,NNW,337,5.4,8.9,76,0.00,,,0.00,VWS V14.01,2013-05-20 17:34:00,
2013-05-20 18:40:00,63.0,55.3,29.47,NNE,22,1.1,4.9,76,0.00,,,0.00,VWS V14.01,2013-05-20 17:40:00,
2013-05-20 18:46:00,63.0,55.7,29.47,North,0,4.5,4.9,77,0.00,,,0.00,VWS V14.01,2013-05-20 17:46:00,
2013-05-20 18:52:00,62.8,55.5,29.47,North,0,0.0,0.0,77,0.00,,,0.00,VWS V14.01,2013-05-20 17:52:00,
2013-05-20 18:58:00,62.6,55.3,29.47,NNE,22,0.0,0.0,77,0.00,,,0.00,VWS V14.01,2013-05-20 17:58:00,
2013-05-20 19:04:00,62.4,55.5,29.47,NNW,337,0.0,0.0,78,0.00,,,0.00,VWS V14.01,2013-05-20 18:04:00,
2013-05-20 19:10:00,62.4,55.5,29.47,NNE,22,0.0,0.0,78,0.00,,,0.00,VWS V14.01,2013-05-20 18:10:00,
2013-05-20 19:15:00,62.4,55.8,29.47,North,0,0.0,4.5,79,0.00,,,0.00,VWS V14.01,2013-05-20 18:15:00,
2013-05-20 19:21:00,62.6,55.7,29.47,NNE,22,0.0,0.0,78,0.00,,,0.00,VWS V14.01,2013-05-20 18:21:00,
2013-05-20 19:27:00,62.8,55.5,29.47,North,0,3.1,6.3,77,0.00,,,0.00,VWS V14.01,2013-05-20 18:27:00,
2013-05-20 19:33:00,62.8,55.5,29.47,North,0,0.0,0.0,77,0.00,,,0.00,VWS V14.01,2013-05-20 18:33:00,
2013-05-20 19:39:00,62.8,55.5,29.47,NNW,337,6.3,6.3,77,0.00,,,0.00,VWS V14.01,2013-05-20 18:39:00,
2013-05-20 19:44:00,62.6,55.3,29.47,NNE,22,0.0,0.0,77,0.00,,,0.00,VWS V14.01,2013-05-20 18:44:00,
2013-05-20 19:49:00,62.4,55.5,29.47,NNW,337,2.2,9.2,78,0.00,,,0.00,VWS V14.01,2013-05-20 18:49:00,
2013-05-20 19:55:00,62.4,55.5,29.47,NNW,337,2.5,7.8,78,0.00,,,0.00,VWS V14.01,2013-05-20 18:55:00,
2013-05-20 20:01:00,62.2,55.3,29.47,North,0,0.0,0.0,78,0.00,,,0.00,VWS V14.01,2013-05-20 19:01:00,
2013-05-20 20:07:00,62.2,55.3,29.47,North,0,2.9,3.6,78,0.00,,,0.00,VWS V14.01,2013-05-20 19:07:00,
2013-05-20 20:12:00,62.2,55.6,29.47,NNW,337,0.0,0.0,79,0.00,,,0.00,VWS V14.01,2013-05-20 19:12:00,
2013-05-20 20:17:00,62.1,55.5,29.48,NNW,337,3.1,3.1,79,0.00,,,0.00,VWS V14.01,2013-05-20 19:17:00,
2013-05-20 20:23:00,62.1,55.5,29.48,NNW,337,0.0,2.0,79,0.00,,,0.00,VWS V14.01,2013-05-20 19:23:00,
2013-05-20 20:28:00,61.9,55.3,29.48,North,0,1.8,6.9,79,0.00,,,0.00,VWS V14.01,2013-05-20 19:28:00,
2013-05-20 20:34:00,61.9,55.3,29.48,NNW,337,6.7,6.7,79,0.00,,,0.00,VWS V14.01,2013-05-20 19:34:00,
2013-05-20 20:40:00,61.7,55.5,29.48,NNW,337,0.0,0.0,80,0.00,,,0.00,VWS V14.01,2013-05-20 19:40:00,
2013-05-20 20:45:00,61.7,55.5,29.48,NNW,337,0.0,0.0,80,0.00,,,0.00,VWS V14.01,2013-05-20 19:45:00,
2013-05-20 20:51:00,61.7,55.5,29.49,NNW,337,0.0,0.0,80,0.00,,,0.00,VWS V14.01,2013-05-20 19:51:00,
2013-05-20 20:57:00,61.7,55.5,29.49,NNW,337,0.0,0.0,80,0.00,,,0.00,VWS V14.01,2013-05-20 19:57:00,
2013-05-20 21:03:00,61.7,55.8,29.49,NNW,337,0.0,0.0,81,0.00,,,0.00,VWS V14.01,2013-05-20 20:03:00,
2013-05-20 21:10:00,61.5,55.6,29.49,North,0,0.0,0.0,81,0.00,,,0.00,VWS V14.01,2013-05-20 20:10:00,
2013-05-20 21:16:00,61.5,55.6,29.49,NNW,337,0.0,6.3,81,0.00,,,0.00,VWS V14.01,2013-05-20 20:16:00,
2013-05-20 21:22:00,61.5,55.6,29.49,NNW,337,0.0,0.0,81,0.00,,,0.00,VWS V14.01,2013-05-20 20:22:00,
2013-05-20 21:27:00,61.5,55.6,29.49,NNW,337,0.0,0.0,81,0.00,,,0.00,VWS V14.01,2013-05-20 20:27:00,
2013-05-20 21:33:00,61.5,55.6,29.49,North,0,0.0,0.0,81,0.00,,,0.00,VWS V14.01,2013-05-20 20:33:00,
2013-05-20 21:39:00,61.5,55.6,29.49,North,0,0.0,0.0,81,0.00,,,0.00,VWS V14.01,2013-05-20 20:39:00,
2013-05-20 21:45:00,61.3,55.4,29.49,NW,315,0.0,0.0,81,0.00,,,0.00,VWS V14.01,2013-05-20 20:45:00,
2013-05-20 21:50:00,61.5,55.6,29.50,NNW,337,3.4,3.6,81,0.00,,,0.00,VWS V14.01,2013-05-20 20:50:00,
2013-05-20 21:56:00,61.3,55.4,29.49,NNW,337,5.8,5.8,81,0.00,,,0.00,VWS V14.01,2013-05-20 20:56:00,
2013-05-20 22:02:00,61.3,55.4,29.50,NNW,337,3.1,3.1,81,0.00,,,0.00,VWS V14.01,2013-05-20 21:02:00,
2013-05-20 22:08:00,61.3,55.4,29.50,NNW,337,0.0,8.3,81,0.00,,,0.00,VWS V14.01,2013-05-20 21:08:00,
2013-05-20 22:14:00,61.3,55.4,29.49,North,0,0.0,0.0,81,0.00,,,0.00,VWS V14.01,2013-05-20 21:14:00,
2013-05-20 22:19:00,61.3,55.8,29.50,NNW,337,0.0,0.0,82,0.00,,,0.00,VWS V14.01,2013-05-20 21:19:00,
2013-05-20 22:25:00,61.3,55.8,29.49,NNW,337,0.0,0.0,82,0.00,,,0.00,VWS V14.01,2013-05-20 21:25:00,
2013-05-20 22:31:00,61.2,55.7,29.49,NNW,337,0.0,6.0,82,0.00,,,0.00,VWS V14.01,2013-05-20 21:31:00,
2013-05-20 22:37:00,61.3,55.4,29.49,North,0,0.0,0.0,81,0.00,,,0.00,VWS V14.01,2013-05-20 21:37:00,
2013-05-20 22:42:00,61.3,55.4,29.50,North,0,6.0,6.9,81,0.00,,,0.00,VWS V14.01,2013-05-20 21:42:00,
2013-05-20 22:48:00,61.3,55.4,29.50,NNE,22,9.4,16.6,81,0.00,,,0.00,VWS V14.01,2013-05-20 21:48:00,
2013-05-20 22:53:00,61.3,54.7,29.50,NNW,337,5.4,6.0,79,0.00,,,0.00,VWS V14.01,2013-05-20 21:53:00,
2013-05-20 22:59:00,61.3,54.7,29.50,NNW,337,2.5,5.1,79,0.00,,,0.00,VWS V14.01,2013-05-20 21:59:00,
2013-05-20 23:05:00,61.3,54.7,29.50,NNE,22,0.0,0.0,79,0.00,,,0.00,VWS V14.01,2013-05-20 22:05:00,
2013-05-20 23:11:00,61.3,54.7,29.50,NE,45,0.0,0.0,79,0.00,,,0.00,VWS V14.01,2013-05-20 22:11:00,
2013-05-20 23:17:00,61.3,54.4,29.50,NNW,337,0.0,0.0,78,0.00,,,0.00,VWS V14.01,2013-05-20 22:17:00,
2013-05-20 23:23:00,61.2,54.6,29.50,North,0,2.7,11.0,79,0.00,,,0.00,VWS V14.01,2013-05-20 22:23:00,
2013-05-20 23:28:00,61.2,54.6,29.50,NNW,337,0.0,5.8,79,0.00,,,0.00,VWS V14.01,2013-05-20 22:28:00,
2013-05-20 23:34:00,61.0,54.5,29.50,NNW,337,0.0,2.2,79,0.00,,,0.00,VWS V14.01,2013-05-20 22:34:00,
2013-05-20 23:39:00,61.0,54.5,29.50,NNW,337,0.0,0.0,79,0.00,,,0.00,VWS V14.01,2013-05-20 22:39:00,
2013-05-20 23:45:00,61.0,54.5,29.50,NNE,22,0.0,0.0,79,0.00,,,0.00,VWS V14.01,2013-05-20 22:45:00,
2013-05-20 23:51:00,61.0,54.5,29.50,NNW,337,2.5,10.5,79,0.00,,,0.00,VWS V14.01,2013-05-20 22:51:00,
2013-05-20 23:56:00,61.0,54.5,29.49,NNW,337,0.0,7.6,79,0.00,,,0.00,VWS V14.01,2013-05-20 22:56:00,